createdAt,value
2023-05-16T00:01:30.183Z,1.88
2023-05-16T00:03:57.768Z,2.30
2023-05-16T00:06:24.509Z,1.65
2023-05-16T00:08:51.086Z,1.88
2023-05-16T00:11:18.289Z,1.55
2023-05-16T00:13:47.751Z,1.70
2023-05-16T00:16:14.775Z,2.08
2023-05-16T00:18:41.530Z,1.42
2023-05-16T00:21:08.093Z,1.63
2023-05-16T00:23:34.843Z,2.00
2023-05-16T00:26:01.337Z,2.50
2023-05-16T00:28:27.821Z,1.83
2023-05-16T00:30:54.307Z,1.80
2023-05-16T00:33:20.892Z,2.65
2023-05-16T00:35:47.419Z,2.15
2023-05-16T00:38:13.927Z,2.92
2023-05-16T00:40:40.990Z,1.92
2023-05-16T00:43:07.635Z,2.80
2023-05-16T00:45:34.185Z,2.35
2023-05-16T00:48:00.783Z,1.90
2023-05-16T00:50:27.753Z,2.42
2023-05-16T00:52:54.582Z,2.47
2023-05-16T00:55:21.672Z,2.33
2023-05-16T00:57:48.165Z,2.85
2023-05-16T01:00:15.911Z,3.00
2023-05-16T01:02:43.107Z,2.38
2023-05-16T01:05:10.184Z,2.30
2023-05-16T01:07:36.814Z,2.33
2023-05-16T01:10:05.894Z,2.38
2023-05-16T01:12:50.615Z,2.67
2023-05-16T01:15:29.319Z,2.15
2023-05-16T01:18:02.044Z,2.20
2023-05-16T01:20:49.934Z,2.10
2023-05-16T01:23:35.594Z,1.45
2023-05-16T01:26:16.310Z,2.10
2023-05-16T01:28:46.012Z,2.20
2023-05-16T01:31:12.886Z,2.25
2023-05-16T01:33:39.490Z,1.70
2023-05-16T01:36:05.993Z,1.73
2023-05-16T01:38:54.147Z,1.40
2023-05-16T01:41:47.776Z,1.77
2023-05-16T01:44:20.986Z,1.80
2023-05-16T01:46:49.152Z,1.98
2023-05-16T01:49:24.032Z,1.80
2023-05-16T01:52:02.073Z,2.10
2023-05-16T01:54:31.910Z,2.35
2023-05-16T01:57:01.024Z,2.05
2023-05-16T01:59:28.818Z,2.40
2023-05-16T02:01:57.627Z,2.22
2023-05-16T02:04:24.420Z,2.65
2023-05-16T02:06:52.053Z,2.40
2023-05-16T02:09:18.881Z,2.78
2023-05-16T02:11:46.964Z,3.47
2023-05-16T02:14:13.860Z,3.20
2023-05-16T02:16:40.515Z,3.40
2023-05-16T02:19:07.114Z,2.60
2023-05-16T02:21:33.612Z,3.20
2023-05-16T02:24:00.134Z,2.60
2023-05-16T02:26:26.641Z,2.50
2023-05-16T02:28:54.329Z,2.42
2023-05-16T02:31:32.245Z,2.38
2023-05-16T02:34:00.348Z,2.30
2023-05-16T02:36:27.459Z,1.83
2023-05-16T02:38:54.210Z,2.10
2023-05-16T02:41:22.530Z,2.10
2023-05-16T02:43:49.504Z,2.03
2023-05-16T02:46:34.787Z,2.10
2023-05-16T02:49:01.908Z,1.42
2023-05-16T02:51:29.109Z,2.05
2023-05-16T02:53:57.447Z,1.67
2023-05-16T02:56:24.146Z,1.98
2023-05-16T02:58:50.678Z,1.75
2023-05-16T03:01:17.675Z,2.05
2023-05-16T03:03:44.622Z,1.17
2023-05-16T03:06:11.293Z,2.08
2023-05-16T03:08:38.363Z,1.70
2023-05-16T03:11:04.957Z,1.35
2023-05-16T03:13:31.932Z,1.98
2023-05-16T03:15:58.682Z,1.95
2023-05-16T03:18:25.386Z,2.03
2023-05-16T03:20:53.086Z,1.60
2023-05-16T03:23:22.958Z,1.85
2023-05-16T03:25:49.650Z,1.42
2023-05-16T03:28:17.926Z,1.92
2023-05-16T03:30:44.452Z,1.80
2023-05-16T03:33:11.058Z,1.50
2023-05-16T03:35:38.118Z,1.65
2023-05-16T03:38:04.727Z,1.73
2023-05-16T03:40:31.453Z,1.45
2023-05-16T03:42:58.130Z,1.67
2023-05-16T03:45:24.971Z,1.75
2023-05-16T03:47:51.867Z,1.60
2023-05-16T03:50:18.800Z,1.73
2023-05-16T03:52:45.407Z,1.70
2023-05-16T03:55:14.572Z,1.55
2023-05-16T03:57:44.824Z,2.13
2023-05-16T04:00:12.718Z,2.00
2023-05-16T04:02:44.040Z,1.90
2023-05-16T04:05:11.710Z,2.47
2023-05-16T04:07:38.425Z,1.98
2023-05-16T04:10:05.990Z,1.40
2023-05-16T04:12:32.907Z,2.10
2023-05-16T04:14:59.505Z,1.90
2023-05-16T04:17:26.275Z,2.15
2023-05-16T04:19:52.862Z,2.53
2023-05-16T04:22:21.703Z,1.65
2023-05-16T04:24:48.391Z,2.53
2023-05-16T04:27:15.247Z,2.20
2023-05-16T04:29:41.721Z,1.92
2023-05-16T04:32:08.450Z,2.53
2023-05-16T04:34:39.892Z,2.20
2023-05-16T04:37:07.562Z,2.58
2023-05-16T04:39:35.777Z,2.20
2023-05-16T04:42:03.779Z,2.28
2023-05-16T04:44:30.593Z,2.55
2023-05-16T04:46:57.805Z,3.20
2023-05-16T04:49:24.578Z,3.20
2023-05-16T04:51:51.250Z,3.38
2023-05-16T04:54:17.898Z,3.97
2023-05-16T04:56:44.398Z,3.22
2023-05-16T04:59:10.923Z,3.47
2023-05-16T05:01:37.524Z,3.00
2023-05-16T05:04:04.138Z,3.13
2023-05-16T05:06:32.221Z,2.78
2023-05-16T05:08:58.736Z,1.77
2023-05-16T05:11:27.369Z,2.58
2023-05-16T05:13:53.996Z,1.75
2023-05-16T05:16:20.495Z,2.30
2023-05-16T05:18:47.235Z,1.50
2023-05-16T05:21:14.049Z,1.73
2023-05-16T05:23:40.537Z,1.92
2023-05-16T05:26:07.230Z,2.17
2023-05-16T05:28:33.784Z,1.85
2023-05-16T05:31:00.251Z,1.65
2023-05-16T05:33:29.692Z,1.35
2023-05-16T05:35:56.374Z,1.95
2023-05-16T05:38:23.127Z,1.13
2023-05-16T05:40:49.990Z,1.83
2023-05-16T05:43:16.712Z,1.45
2023-05-16T05:45:44.596Z,1.95
2023-05-16T05:48:12.560Z,1.50
2023-05-16T05:50:39.177Z,2.87
2023-05-16T05:53:05.856Z,1.70
2023-05-16T05:55:32.522Z,1.80
2023-05-16T05:57:59.011Z,2.08
2023-05-16T06:00:26.103Z,1.90
2023-05-16T06:02:52.858Z,1.90
2023-05-16T06:05:20.096Z,1.48
2023-05-16T06:07:46.626Z,1.73
2023-05-16T06:10:13.134Z,1.65
2023-05-16T06:12:39.711Z,1.20
2023-05-16T06:15:06.730Z,1.17
2023-05-16T06:17:33.338Z,0.90
2023-05-16T06:19:59.941Z,1.17
2023-05-16T06:22:26.481Z,2.22
2023-05-16T06:24:53.060Z,1.40
2023-05-16T06:27:19.528Z,1.60
2023-05-16T06:29:46.457Z,1.23
2023-05-16T06:32:13.602Z,1.40
2023-05-16T06:34:40.361Z,1.23
2023-05-16T06:37:06.986Z,1.60
2023-05-16T06:39:33.472Z,1.00
2023-05-16T06:42:00.164Z,1.48
2023-05-16T06:44:27.725Z,1.17
2023-05-16T06:46:54.409Z,1.50
2023-05-16T06:49:21.282Z,0.98
2023-05-16T06:51:47.836Z,1.00
2023-05-16T06:54:14.619Z,1.75
2023-05-16T06:56:41.165Z,0.93
2023-05-16T06:59:08.412Z,1.23
2023-05-16T07:01:34.979Z,1.33
2023-05-16T07:04:01.762Z,1.00
2023-05-16T07:06:28.416Z,1.50
2023-05-16T07:08:54.909Z,1.15
2023-05-16T07:11:21.493Z,1.65
2023-05-16T07:13:48.063Z,1.38
2023-05-16T07:16:14.657Z,1.60
2023-05-16T07:18:41.266Z,1.23
2023-05-16T07:21:08.470Z,1.30
2023-05-16T07:23:34.969Z,1.60
2023-05-16T07:26:01.520Z,1.38
2023-05-16T07:28:28.016Z,0.93
2023-05-16T07:30:55.208Z,1.30
2023-05-16T07:33:21.930Z,0.80
2023-05-16T07:35:48.482Z,1.20
2023-05-16T07:38:15.151Z,1.10
2023-05-16T07:40:41.752Z,1.43
2023-05-16T07:43:08.259Z,1.00
2023-05-16T07:45:36.881Z,1.20
2023-05-16T07:48:03.619Z,0.98
2023-05-16T07:50:30.166Z,0.88
2023-05-16T07:52:56.744Z,1.00
2023-05-16T07:55:23.466Z,1.60
2023-05-16T07:57:51.147Z,1.63
2023-05-16T08:00:18.606Z,1.10
2023-05-16T08:02:45.269Z,1.35
2023-05-16T08:05:12.026Z,0.97
2023-05-16T08:07:38.688Z,1.10
2023-05-16T08:10:05.840Z,1.25
2023-05-16T08:12:32.460Z,1.25
2023-05-16T08:14:59.032Z,1.33
2023-05-16T08:17:25.719Z,1.20
2023-05-16T08:19:52.335Z,1.05
2023-05-16T08:22:19.343Z,1.20
2023-05-16T08:24:46.033Z,1.38
2023-05-16T08:27:12.928Z,1.20
2023-05-16T08:29:39.449Z,1.00
2023-05-16T08:32:06.180Z,1.20
2023-05-16T08:34:32.875Z,1.10
2023-05-16T08:37:00.366Z,1.70
2023-05-16T08:39:26.893Z,0.90
2023-05-16T08:41:53.649Z,1.63
2023-05-16T08:44:22.065Z,1.35
2023-05-16T08:46:52.882Z,1.20
2023-05-16T08:49:20.869Z,1.27
2023-05-16T08:51:48.705Z,1.38
2023-05-16T08:54:16.985Z,1.40
2023-05-16T08:56:44.776Z,1.30
2023-05-16T08:59:15.223Z,1.00
2023-05-16T09:01:42.552Z,1.55
2023-05-16T09:04:09.866Z,1.20
2023-05-16T09:06:37.037Z,1.37
2023-05-16T09:09:04.764Z,1.33
2023-05-16T09:11:31.401Z,1.10
2023-05-16T09:13:57.928Z,1.30
2023-05-16T09:16:24.530Z,1.00
2023-05-16T09:18:57.037Z,1.10
2023-05-16T09:21:28.017Z,0.90
2023-05-16T09:23:55.047Z,0.95
2023-05-16T09:26:22.943Z,1.20
2023-05-16T09:28:54.845Z,1.20
2023-05-16T09:31:22.872Z,0.90
2023-05-16T09:33:50.692Z,1.00
2023-05-16T09:36:17.312Z,1.33
2023-05-16T09:38:44.558Z,1.20
2023-05-16T09:41:11.829Z,1.33
2023-05-16T09:43:42.000Z,0.97
2023-05-16T09:46:12.249Z,1.00
2023-05-16T09:48:47.870Z,1.40
2023-05-16T09:51:15.091Z,1.13
2023-05-16T09:53:41.976Z,1.10
2023-05-16T09:56:13.663Z,1.10
2023-05-16T09:58:43.213Z,1.45
2023-05-16T10:01:10.942Z,1.25
2023-05-16T10:03:40.162Z,1.35
2023-05-16T10:06:08.800Z,1.10
2023-05-16T10:08:37.064Z,1.47
2023-05-16T10:11:06.034Z,1.67
2023-05-16T10:13:34.725Z,1.45
2023-05-16T10:16:06.719Z,1.40
2023-05-16T10:18:34.444Z,1.27
2023-05-16T10:21:05.911Z,1.30
2023-05-16T10:23:34.313Z,1.35
2023-05-16T10:26:03.976Z,1.25
2023-05-16T10:28:32.759Z,1.30
2023-05-16T10:31:04.044Z,1.10
2023-05-16T10:33:31.096Z,1.40
2023-05-16T10:35:58.472Z,1.10
2023-05-16T10:38:28.464Z,1.30
2023-05-16T10:40:55.973Z,1.10
2023-05-16T10:43:27.868Z,1.10
2023-05-16T10:46:05.745Z,1.10
2023-05-16T10:48:39.762Z,1.05
2023-05-16T10:51:34.842Z,1.10
2023-05-16T10:54:15.071Z,1.40
2023-05-16T10:56:44.163Z,1.40
2023-05-16T10:59:28.572Z,1.53
2023-05-16T11:01:57.540Z,1.50
2023-05-16T11:04:24.383Z,1.20
2023-05-16T11:06:53.477Z,1.05
2023-05-16T11:09:27.380Z,1.10
2023-05-16T11:12:07.020Z,1.10
2023-05-16T11:14:47.805Z,1.27
2023-05-16T11:17:22.145Z,1.20
2023-05-16T11:19:55.474Z,1.17
2023-05-16T11:22:24.319Z,1.20
2023-05-16T11:24:52.299Z,1.60
2023-05-16T11:27:24.899Z,1.05
2023-05-16T11:29:52.657Z,1.08
2023-05-16T11:32:22.068Z,1.30
2023-05-16T11:34:49.709Z,1.55
2023-05-16T11:37:17.234Z,1.80
2023-05-16T11:39:44.312Z,1.00
2023-05-16T11:42:10.997Z,0.90
2023-05-16T11:44:37.716Z,1.20
2023-05-16T11:47:05.543Z,1.23
2023-05-16T11:49:32.236Z,1.40
2023-05-16T11:51:58.823Z,1.23
2023-05-16T11:54:26.397Z,1.17
2023-05-16T11:56:53.752Z,1.17
2023-05-16T11:59:20.866Z,1.10
2023-05-16T12:01:49.337Z,1.23
2023-05-16T12:04:17.462Z,1.27
2023-05-16T12:06:48.503Z,0.93
2023-05-16T12:09:18.168Z,1.27
2023-05-16T12:11:45.356Z,1.20
2023-05-16T12:14:13.842Z,1.20
2023-05-16T12:16:44.000Z,1.00
2023-05-16T12:19:11.737Z,1.00
2023-05-16T12:21:38.899Z,1.10
2023-05-16T12:24:05.961Z,1.23
2023-05-16T12:26:33.669Z,1.20
2023-05-16T12:29:03.550Z,1.30
2023-05-16T12:31:32.519Z,1.23
2023-05-16T12:33:59.701Z,1.20
2023-05-16T12:36:28.816Z,1.25
2023-05-16T12:38:55.672Z,1.20
2023-05-16T12:41:23.012Z,1.00
2023-05-16T12:43:50.442Z,1.15
2023-05-16T12:46:17.640Z,1.20
2023-05-16T12:48:44.384Z,1.60
2023-05-16T12:51:18.876Z,1.23
2023-05-16T12:54:05.814Z,1.30
2023-05-16T12:56:36.524Z,1.00
2023-05-16T12:59:03.429Z,1.10
2023-05-16T13:01:30.204Z,1.27
2023-05-16T13:03:57.017Z,1.00
2023-05-16T13:06:23.768Z,1.15
2023-05-16T13:08:50.303Z,1.05
2023-05-16T13:11:16.836Z,1.10
2023-05-16T13:13:43.342Z,1.30
2023-05-16T13:16:10.467Z,1.27
2023-05-16T13:18:37.391Z,1.05
2023-05-16T13:21:04.583Z,1.20
2023-05-16T13:23:31.237Z,1.60
2023-05-16T13:25:57.794Z,0.93
2023-05-16T13:28:24.576Z,0.90
2023-05-16T13:30:51.625Z,1.17
2023-05-16T13:33:18.182Z,1.20
2023-05-16T13:35:45.220Z,1.10
2023-05-16T13:38:11.771Z,1.00
2023-05-16T13:40:38.423Z,2.17
2023-05-16T13:43:05.751Z,1.10
2023-05-16T13:45:32.539Z,1.02
2023-05-16T13:47:59.165Z,1.00
2023-05-16T13:50:33.082Z,0.90
2023-05-16T13:53:00.416Z,0.90
2023-05-16T13:55:27.171Z,1.02
2023-05-16T13:57:54.033Z,1.20
2023-05-16T14:02:50.334Z,1.15
2023-05-16T14:05:16.993Z,0.90
2023-05-16T14:07:46.136Z,0.93
2023-05-16T14:10:13.396Z,1.00
2023-05-16T14:12:40.667Z,0.73
2023-05-16T14:15:07.843Z,0.90
2023-05-16T14:17:34.446Z,0.80
2023-05-16T14:20:01.153Z,1.02
2023-05-16T14:22:28.704Z,0.80
2023-05-16T14:24:55.421Z,0.80
2023-05-16T14:27:21.924Z,0.70
2023-05-16T14:29:48.929Z,0.87
2023-05-16T14:32:15.668Z,1.13
2023-05-16T14:34:42.405Z,0.70
2023-05-16T14:37:10.244Z,0.90
2023-05-16T14:39:36.948Z,0.70
2023-05-16T14:42:04.611Z,1.17
2023-05-16T14:44:32.125Z,1.02
2023-05-16T14:46:58.671Z,1.05
2023-05-16T14:49:25.388Z,0.90
2023-05-16T14:51:52.128Z,1.05
2023-05-16T14:54:19.143Z,0.83
2023-05-16T14:56:45.783Z,1.27
2023-05-16T14:59:12.780Z,0.98
2023-05-16T15:01:39.308Z,1.25
2023-05-16T15:04:06.044Z,1.10
2023-05-16T15:06:32.702Z,1.23
2023-05-16T15:08:59.232Z,1.20
2023-05-16T15:11:26.053Z,1.50
2023-05-16T15:13:52.708Z,1.00
2023-05-16T15:16:19.449Z,1.63
2023-05-16T15:18:46.244Z,1.17
2023-05-16T15:21:12.808Z,1.10
2023-05-16T15:23:39.338Z,1.23
2023-05-16T15:26:06.373Z,1.85
2023-05-16T15:28:32.911Z,1.30
2023-05-16T15:30:59.435Z,1.40
2023-05-16T15:33:26.307Z,1.58
2023-05-16T15:35:53.040Z,1.50
2023-05-16T15:38:19.764Z,1.38
2023-05-16T15:40:46.373Z,1.40
2023-05-16T15:43:13.551Z,1.37
2023-05-16T15:45:40.619Z,1.38
2023-05-16T15:48:07.659Z,1.13
2023-05-16T15:50:34.440Z,1.30
2023-05-16T15:53:01.223Z,1.40
2023-05-16T15:55:28.097Z,1.40
2023-05-16T15:57:57.266Z,1.30
2023-05-16T16:00:24.941Z,1.08
2023-05-16T16:02:51.850Z,1.52
2023-05-16T16:05:18.597Z,1.27
2023-05-16T16:07:45.405Z,1.00
2023-05-16T16:10:12.197Z,1.00
2023-05-16T16:12:39.651Z,1.30
2023-05-16T16:15:06.876Z,1.42
2023-05-16T16:17:33.694Z,1.77
2023-05-16T16:20:00.543Z,2.07
2023-05-16T16:22:27.199Z,1.67
2023-05-16T16:24:53.821Z,1.90
2023-05-16T16:27:20.323Z,1.60
2023-05-16T16:29:46.853Z,2.15
2023-05-16T16:32:13.577Z,2.23
2023-05-16T16:34:40.225Z,2.60
2023-05-16T16:37:07.030Z,2.50
2023-05-16T16:39:33.705Z,2.40
2023-05-16T16:42:00.429Z,2.30
2023-05-16T16:44:27.043Z,2.60
2023-05-16T16:46:53.733Z,3.03
2023-05-16T16:49:20.860Z,2.58
2023-05-16T16:51:47.727Z,3.33
2023-05-16T16:54:14.300Z,2.47
2023-05-16T16:56:40.939Z,2.53
2023-05-16T16:59:07.821Z,2.35
2023-05-16T17:01:35.019Z,2.97
2023-05-16T17:04:02.151Z,2.55
2023-05-16T17:06:30.108Z,3.03
2023-05-16T17:08:57.419Z,2.43
2023-05-16T17:11:24.252Z,2.45
2023-05-16T17:13:51.328Z,2.95
2023-05-16T17:16:17.917Z,2.58
2023-05-16T17:18:44.611Z,2.70
2023-05-16T17:21:13.029Z,2.60
2023-05-16T17:23:41.690Z,2.38
2023-05-16T17:26:09.984Z,2.20
2023-05-16T17:28:36.664Z,2.25
2023-05-16T17:31:04.020Z,2.88
2023-05-16T17:33:31.220Z,2.90
2023-05-16T17:35:57.838Z,3.20
2023-05-16T17:38:24.589Z,2.85
2023-05-16T17:40:51.146Z,2.85
2023-05-16T17:43:17.838Z,2.80
2023-05-16T17:45:44.439Z,2.47
2023-05-16T17:48:10.996Z,2.00
2023-05-16T17:50:37.701Z,2.15
2023-05-16T17:53:04.825Z,2.25
2023-05-16T17:55:31.364Z,2.17
2023-05-16T17:57:58.220Z,2.27
2023-05-16T18:00:25.069Z,2.17
2023-05-16T18:02:52.330Z,2.28
2023-05-16T18:05:19.004Z,2.78
2023-05-16T18:07:45.580Z,2.33
2023-05-16T18:10:12.299Z,2.70
2023-05-16T18:12:39.140Z,2.65
2023-05-16T18:15:06.657Z,2.08
2023-05-16T18:17:34.211Z,2.17
2023-05-16T18:20:08.989Z,1.95
2023-05-16T18:22:37.217Z,1.93
2023-05-16T18:25:09.195Z,1.60
2023-05-16T18:27:37.077Z,2.00
2023-05-16T18:30:05.589Z,1.60
2023-05-16T18:32:32.373Z,1.80
2023-05-16T18:34:58.947Z,2.40
2023-05-16T18:37:25.572Z,2.25
2023-05-16T18:39:52.813Z,1.90
2023-05-16T18:42:21.778Z,1.98
2023-05-16T18:44:48.317Z,1.90
2023-05-16T18:47:15.817Z,2.10
2023-05-16T18:49:43.430Z,1.77
2023-05-16T18:52:10.864Z,1.83
2023-05-16T18:54:38.554Z,1.67
2023-05-16T18:57:06.509Z,2.10
2023-05-16T18:59:34.010Z,2.00
2023-05-16T19:02:00.763Z,2.00
2023-05-16T19:04:27.648Z,2.40
2023-05-16T19:06:56.331Z,2.13
2023-05-16T19:09:23.298Z,2.33
2023-05-16T19:11:49.911Z,2.03
2023-05-16T19:14:16.851Z,2.55
2023-05-16T19:16:43.326Z,1.20
2023-05-16T19:19:10.286Z,2.28
2023-05-16T19:21:37.965Z,1.40
2023-05-16T19:24:04.918Z,1.73
2023-05-16T19:26:31.526Z,1.50
2023-05-16T19:28:58.074Z,1.77
2023-05-16T19:31:24.768Z,1.88
2023-05-16T19:33:51.288Z,1.70
2023-05-16T19:36:17.844Z,1.48
2023-05-16T19:38:44.364Z,1.83
2023-05-16T19:41:10.978Z,1.90
2023-05-16T19:43:37.544Z,1.58
2023-05-16T19:46:04.118Z,1.77
2023-05-16T19:48:30.865Z,1.67
2023-05-16T19:50:57.630Z,1.60
2023-05-16T19:53:24.256Z,1.63
2023-05-16T19:55:50.886Z,1.75
2023-05-16T19:58:17.451Z,2.42
2023-05-16T20:00:44.074Z,1.88
2023-05-16T20:03:11.438Z,1.80
2023-05-16T20:05:38.087Z,1.35
2023-05-16T20:08:04.799Z,1.95
2023-05-16T20:10:31.337Z,1.40
2023-05-16T20:12:57.949Z,1.77
2023-05-16T20:15:24.931Z,1.50
2023-05-16T20:17:51.641Z,1.58
2023-05-16T20:20:18.200Z,3.20
2023-05-16T20:22:44.680Z,1.80
2023-05-16T20:25:12.045Z,1.98
2023-05-16T20:27:38.753Z,1.60
2023-05-16T20:30:07.427Z,1.50
2023-05-16T20:32:34.455Z,2.00
2023-05-16T20:35:02.316Z,1.92
2023-05-16T20:37:28.913Z,1.95
2023-05-16T20:39:55.894Z,2.13
2023-05-16T20:42:22.433Z,2.10
2023-05-16T20:44:49.053Z,2.17
2023-05-16T20:47:17.095Z,2.17
2023-05-16T20:49:43.801Z,2.10
2023-05-16T20:52:11.924Z,2.33
2023-05-16T20:54:38.526Z,2.20
2023-05-16T20:57:05.608Z,1.85
2023-05-16T20:59:32.300Z,1.63
2023-05-16T21:01:58.972Z,2.10
2023-05-16T21:04:25.717Z,2.67
2023-05-16T21:06:52.344Z,2.00
2023-05-16T21:09:19.090Z,2.38
2023-05-16T21:11:45.603Z,1.95
2023-05-16T21:14:12.252Z,1.95
2023-05-16T21:16:38.740Z,1.90
2023-05-16T21:19:05.480Z,2.40
2023-05-16T21:21:32.258Z,2.35
2023-05-16T21:23:58.948Z,2.30
2023-05-16T21:26:26.153Z,2.33
2023-05-16T21:28:55.663Z,2.20
2023-05-16T21:31:22.983Z,2.13
2023-05-16T21:33:52.169Z,2.92
2023-05-16T21:36:20.115Z,2.67
2023-05-16T21:38:46.798Z,2.63
2023-05-16T21:41:13.667Z,2.60
2023-05-16T21:43:40.645Z,2.67
2023-05-16T21:46:07.431Z,2.85
2023-05-16T21:48:34.050Z,2.88
2023-05-16T21:51:00.824Z,2.55
2023-05-16T21:53:27.407Z,2.83
2023-05-16T21:55:54.117Z,3.17
2023-05-16T21:58:20.653Z,3.55
2023-05-16T22:00:47.414Z,2.45
2023-05-16T22:03:14.183Z,2.78
2023-05-16T22:05:43.493Z,2.43
2023-05-16T22:08:09.987Z,2.55
2023-05-16T22:10:36.527Z,3.15
2023-05-16T22:13:03.065Z,2.92
2023-05-16T22:15:30.197Z,2.63
2023-05-16T22:17:57.576Z,2.13
2023-05-16T22:20:26.494Z,2.60
2023-05-16T22:22:53.028Z,2.97
2023-05-16T22:25:19.671Z,2.97
2023-05-16T22:27:46.207Z,2.58
2023-05-16T22:30:12.868Z,3.23
2023-05-16T22:32:39.461Z,2.63
2023-05-16T22:35:06.446Z,2.90
2023-05-16T22:37:32.989Z,2.85
2023-05-16T22:39:59.466Z,2.88
2023-05-16T22:42:26.068Z,2.37
2023-05-16T22:44:52.686Z,2.40
2023-05-16T22:47:19.291Z,2.83
2023-05-16T22:49:45.972Z,2.58
2023-05-16T22:52:12.685Z,3.25
2023-05-16T22:54:41.570Z,2.67
2023-05-16T22:57:08.195Z,2.13
2023-05-16T22:59:34.819Z,2.40
2023-05-16T23:02:01.330Z,2.80
2023-05-16T23:12:01.851Z,2.13
2023-05-16T23:14:28.444Z,3.22
2023-05-16T23:16:54.989Z,2.50
2023-05-16T23:19:21.544Z,2.53
2023-05-16T23:21:48.162Z,2.50
2023-05-16T23:24:14.735Z,2.80
2023-05-16T23:26:41.348Z,2.80
2023-05-16T23:29:08.059Z,2.95
2023-05-16T23:31:34.621Z,2.70
2023-05-16T23:34:01.470Z,2.50
2023-05-16T23:36:28.203Z,2.65
2023-05-16T23:38:54.769Z,2.90
2023-05-16T23:41:21.331Z,2.97
2023-05-16T23:43:48.111Z,2.95
2023-05-16T23:46:14.726Z,2.57
2023-05-16T23:48:41.440Z,2.67
2023-05-16T23:51:08.060Z,2.35
2023-05-16T23:53:35.324Z,2.75
2023-05-16T23:56:02.016Z,2.97
2023-05-16T23:58:28.562Z,2.73
